Time;durP1;ratioP1;P1;durP2;ratioP2;P2;SDS_P1;SDS_P2;PMS_P1;PMS_P2;Temp;Humidity;BMP_temperature;BMP_pressure;BME280_temperature;BME280_humidity;BME280_pressure;Samples;Min_cycle;Max_cycle;Signal;HPM_P1;HPM_P2
2021/03/14 00:03:35;;;;;;;4.40;2.13;;;;;;;19.40;35.09;98774.78;31693468;27;20088;-59
2021/03/14 00:18:37;;;;;;;6.55;2.40;;;;;;;19.30;35.32;98781.31;31734992;28;20035;-63
2021/03/14 00:33:38;;;;;;;5.57;2.10;;;;;;;19.21;35.11;98796.38;31718327;27;20099;-59
2021/03/14 00:48:39;;;;;;;3.90;2.13;;;;;;;19.13;35.24;98810.44;31724234;27;20067;-62
2021/03/14 01:03:41;;;;;;;4.07;1.93;;;;;;;18.97;35.60;98806.13;31749104;27;20304;-63
2021/03/14 01:18:42;;;;;;;5.05;2.40;;;;;;;18.86;35.44;98803.94;31656796;27;20285;-62
2021/03/14 01:33:43;;;;;;;3.43;1.80;;;;;;;18.79;35.45;98830.13;31689292;28;20027;-62
2021/03/14 01:48:44;;;;;;;4.80;2.23;;;;;;;18.70;35.31;98819.81;31697073;28;20284;-62
2021/03/14 02:03:45;;;;;;;4.80;2.17;;;;;;;18.60;35.41;98791.91;31791852;28;20310;-62
2021/03/14 02:18:49;;;;;;;5.00;1.97;;;;;;;18.50;35.42;98811.56;31816462;27;20030;-61
2021/03/14 02:34:05;;;;;;;4.85;2.25;;;;;;;18.45;35.49;98832.31;31798030;27;20326;-56
2021/03/14 02:49:06;;;;;;;3.47;2.10;;;;;;;18.39;35.68;98854.84;31805073;27;20039;-58
2021/03/14 03:04:07;;;;;;;5.90;2.30;;;;;;;18.31;35.44;98868.88;31771685;27;20043;-59
2021/03/14 03:19:14;;;;;;;4.35;2.33;;;;;;;18.25;35.55;98900.28;31790289;27;20668;-58
2021/03/14 03:34:15;;;;;;;4.07;2.40;;;;;;;18.20;35.67;98914.75;31786416;27;20389;-60
2021/03/14 03:49:17;;;;;;;5.55;2.33;;;;;;;18.15;35.54;98934.66;31797070;27;20558;-57
2021/03/14 04:04:18;;;;;;;5.80;2.63;;;;;;;18.10;35.87;98958.03;31706036;27;20547;-62
2021/03/14 04:19:20;;;;;;;6.07;2.58;;;;;;;18.06;35.95;98983.00;31724837;27;20066;-62
2021/03/14 04:34:21;;;;;;;5.13;2.65;;;;;;;17.99;35.76;98999.44;31714238;27;20031;-61
2021/03/14 04:49:22;;;;;;;4.68;2.65;;;;;;;17.95;35.95;99039.38;31721833;27;20040;-62
2021/03/14 05:04:23;;;;;;;5.00;2.50;;;;;;;17.91;35.86;99046.78;31752884;27;20041;-61
2021/03/14 05:19:24;;;;;;;5.57;2.50;;;;;;;17.86;36.23;99075.34;31649978;27;20281;-61
2021/03/14 05:34:25;;;;;;;5.13;2.80;;;;;;;17.83;36.05;99101.13;31663947;28;20297;-61
2021/03/14 05:49:26;;;;;;;4.75;2.70;;;;;;;17.77;36.26;99127.06;31741066;27;20685;-56
2021/03/14 06:04:28;;;;;;;4.23;2.53;;;;;;;17.75;36.19;99165.81;31691755;27;20044;-59
2021/03/14 06:19:28;;;;;;;4.55;2.40;;;;;;;17.73;36.25;99196.69;31700901;27;20286;-56
2021/03/14 06:34:31;;;;;;;5.70;2.20;;;;;;;17.70;36.47;99225.88;31693889;27;20038;-57
2021/03/14 06:49:39;;;;;;;4.03;2.28;;;;;;;17.68;36.48;99274.31;31701841;27;20731;-59
2021/03/14 07:04:43;;;;;;;4.00;2.30;;;;;;;17.65;36.57;99314.06;31695501;27;20686;-55
2021/03/14 07:19:44;;;;;;;4.45;2.20;;;;;;;17.62;36.57;99345.91;31712190;27;20024;-58
2021/03/14 07:34:45;;;;;;;4.83;2.30;;;;;;;17.59;36.59;99381.19;31675423;27;20034;-60
2021/03/14 07:49:52;;;;;;;4.27;2.10;;;;;;;17.57;36.73;99409.44;31712050;27;20297;-57
2021/03/14 08:04:57;;;;;;;3.87;2.20;;;;;;;17.53;36.76;99431.72;31799593;27;20296;-57
2021/03/14 08:19:58;;;;;;;3.70;1.73;;;;;;;17.55;36.65;99469.19;31756993;27;20084;-56
2021/03/14 08:34:59;;;;;;;2.87;1.20;;;;;;;16.41;35.38;99488.00;31753127;27;20035;-57
2021/03/14 08:50:00;;;;;;;3.67;1.52;;;;;;;16.04;39.47;99506.31;31772990;27;20291;-63
2021/03/14 09:05:17;;;;;;;2.57;1.20;;;;;;;16.72;39.39;99533.16;31735295;27;20039;-56
2021/03/14 09:20:18;;;;;;;3.00;1.60;;;;;;;17.03;39.02;99582.75;31699342;27;20342;-58
2021/03/14 09:35:24;;;;;;;2.93;1.20;;;;;;;17.20;38.86;99643.31;31735637;28;20027;-56
2021/03/14 09:50:25;;;;;;;3.90;1.80;;;;;;;17.32;38.70;99665.81;31739277;28;20327;-56
2021/03/14 10:05:27;;;;;;;3.22;1.40;;;;;;;17.86;37.57;99698.28;31714724;28;20089;-57
2021/03/14 10:20:28;;;;;;;3.85;1.48;;;;;;;18.42;35.58;99720.84;31708108;28;20115;-60
2021/03/14 10:35:29;;;;;;;4.93;1.40;;;;;;;19.02;35.22;99738.56;31745316;27;20019;-59
2021/03/14 10:50:30;;;;;;;4.13;1.67;;;;;;;19.39;35.76;99766.44;31759210;27;20443;-58
2021/03/14 11:05:31;;;;;;;4.18;1.65;;;;;;;19.58;35.40;99793.53;31671681;28;20302;-57
2021/03/14 11:20:32;;;;;;;3.70;1.77;;;;;;;19.81;35.22;99814.94;31741796;27;20032;-57
2021/03/14 11:35:34;;;;;;;6.75;2.20;;;;;;;19.97;35.07;99840.53;31749089;27;20630;-61
2021/03/14 11:50:34;;;;;;;4.63;1.85;;;;;;;19.78;34.87;99846.91;31734292;27;20039;-61
2021/03/14 12:05:35;;;;;;;5.70;2.10;;;;;;;19.73;34.70;99859.72;31805735;27;20050;-62
2021/03/14 12:20:38;;;;;;;9.47;3.00;;;;;;;19.69;36.12;99882.09;31783913;27;20643;-60
2021/03/14 12:35:38;;;;;;;7.70;2.92;;;;;;;19.88;39.77;99885.34;31738330;27;20654;-61
2021/03/14 12:50:39;;;;;;;7.77;2.80;;;;;;;20.18;40.55;99892.88;31742880;27;20515;-61
2021/03/14 13:05:40;;;;;;;8.47;3.03;;;;;;;20.47;39.67;99903.03;31717558;27;20290;-62
2021/03/14 13:20:41;;;;;;;7.60;3.00;;;;;;;20.20;39.38;99920.78;31698911;28;20300;-62
2021/03/14 13:35:42;;;;;;;6.60;2.53;;;;;;;20.05;39.05;99928.44;31744503;27;20296;-61
2021/03/14 13:50:43;;;;;;;7.33;2.97;;;;;;;20.14;38.71;99945.16;31690730;27;20293;-62
2021/03/14 14:05:44;;;;;;;7.17;3.20;;;;;;;20.23;38.03;99940.75;31696036;28;20316;-62
2021/03/14 14:20:45;;;;;;;6.90;3.20;;;;;;;20.23;39.44;99948.66;31717502;28;20301;-61
2021/03/14 14:35:47;;;;;;;8.23;3.33;;;;;;;20.34;40.33;99940.47;31725606;27;20627;-63
2021/03/14 14:50:48;;;;;;;7.07;2.77;;;;;;;20.11;37.82;99957.81;31733009;28;20527;-63
2021/03/14 15:05:49;;;;;;;9.90;4.30;;;;;;;19.81;37.76;99971.34;31728385;27;20294;-62
2021/03/14 15:20:50;;;;;;;13.80;6.97;;;;;;;19.85;38.28;100006.97;31729724;28;20281;-63
2021/03/14 15:35:51;;;;;;;11.40;7.03;;;;;;;19.92;38.09;99987.88;31734023;28;20280;-64
2021/03/14 15:50:52;;;;;;;10.50;6.63;;;;;;;19.99;37.58;100005.56;31749501;28;20304;-63
2021/03/14 16:05:53;;;;;;;15.45;8.00;;;;;;;19.97;37.39;100065.56;31720412;28;20289;-61
2021/03/14 16:20:54;;;;;;;11.48;7.28;;;;;;;20.02;37.48;100086.19;31699647;27;20542;-62
2021/03/14 16:35:57;;;;;;;12.03;6.00;;;;;;;20.17;36.40;100079.38;31743472;28;20027;-57
2021/03/14 16:50:58;;;;;;;3.38;1.50;;;;;;;16.04;36.80;100075.13;31709597;27;20296;-58
2021/03/14 17:05:59;;;;;;;4.43;2.03;;;;;;;15.81;39.93;100071.78;31716046;27;20032;-55
2021/03/14 17:21:00;;;;;;;5.20;2.53;;;;;;;17.37;38.27;100092.53;31612441;28;20032;-58
2021/03/14 17:36:01;;;;;;;6.30;3.45;;;;;;;18.34;36.69;100115.38;31685975;28;20047;-57
2021/03/14 17:51:02;;;;;;;8.83;5.43;;;;;;;18.99;35.29;100125.19;31701058;27;20040;-57
2021/03/14 18:06:04;;;;;;;8.75;5.05;;;;;;;19.40;35.00;100136.19;31764417;27;20293;-61
2021/03/14 18:21:05;;;;;;;7.20;4.40;;;;;;;19.69;34.53;100162.41;31748281;27;20120;-58
2021/03/14 18:36:06;;;;;;;7.20;5.37;;;;;;;19.87;33.96;100171.16;31736323;27;20039;-54
2021/03/14 18:51:07;;;;;;;7.55;4.95;;;;;;;19.94;34.04;100181.91;31739204;28;21509;-58
2021/03/14 19:06:09;;;;;;;11.40;7.53;;;;;;;19.73;34.23;100199.84;31727548;27;20035;-61
2021/03/14 19:21:10;;;;;;;10.45;8.02;;;;;;;19.95;34.48;100188.03;31726189;28;20301;-61
2021/03/14 19:36:11;;;;;;;10.67;8.27;;;;;;;20.25;34.40;100182.38;31743251;27;20027;-62
2021/03/14 19:51:12;;;;;;;12.20;9.00;;;;;;;20.39;34.82;100186.28;31717698;28;20297;-62
2021/03/14 20:06:13;;;;;;;9.63;7.40;;;;;;;20.50;34.35;100193.09;31719285;28;20156;-64
2021/03/14 20:21:14;;;;;;;10.23;7.40;;;;;;;20.61;34.23;100192.88;31710211;27;20456;-60
2021/03/14 20:36:15;;;;;;;10.87;6.97;;;;;;;20.63;34.90;100198.84;31722638;28;20289;-62
2021/03/14 20:51:16;;;;;;;11.18;7.15;;;;;;;20.69;34.48;100195.59;31709082;28;20654;-62
2021/03/14 21:06:17;;;;;;;10.07;6.80;;;;;;;20.74;34.96;100192.47;31675096;27;20478;-59
2021/03/14 21:21:18;;;;;;;12.73;8.47;;;;;;;20.79;34.75;100192.84;31719148;28;20035;-62
2021/03/14 21:36:19;;;;;;;10.43;7.50;;;;;;;20.82;35.12;100202.25;31696088;28;20285;-57
2021/03/14 21:51:20;;;;;;;11.20;7.27;;;;;;;20.85;35.21;100192.22;31721462;28;20485;-59
2021/03/14 22:06:21;;;;;;;10.50;7.30;;;;;;;20.90;35.06;100197.03;31708479;28;20301;-61
2021/03/14 22:21:22;;;;;;;17.20;2.92;;;;;;;20.30;30.28;100189.84;31705072;28;20779;-59
2021/03/14 22:36:23;;;;;;;8.87;5.50;;;;;;;17.77;35.62;100188.03;31729073;28;20026;-58
2021/03/14 22:51:24;;;;;;;9.03;5.50;;;;;;;18.96;35.63;100188.66;31732294;28;20300;-61
2021/03/14 23:06:25;;;;;;;9.50;6.32;;;;;;;19.48;34.91;100178.47;31741192;27;20294;-59
2021/03/14 23:21:31;;;;;;;11.67;7.67;;;;;;;19.69;34.55;100159.75;31775071;27;20101;-59
2021/03/14 23:36:31;;;;;;;10.32;7.07;;;;;;;19.78;34.80;100150.13;31711037;28;20298;-61
2021/03/14 23:51:32;;;;;;;9.07;7.10;;;;;;;19.80;35.47;100143.72;31720497;27;20032;-62
